createdAt,value
2023-03-02T00:01:40.151Z,9.32
2023-03-02T00:04:12.846Z,9.82
2023-03-02T00:06:40.419Z,9.90
2023-03-02T00:09:08.217Z,8.27
2023-03-02T00:11:38.886Z,9.27
2023-03-02T00:14:06.960Z,7.28
2023-03-02T00:16:35.207Z,7.50
2023-03-02T00:19:02.922Z,8.05
2023-03-02T00:21:31.811Z,7.60
2023-03-02T00:23:59.653Z,8.60
2023-03-02T00:26:27.156Z,10.25
2023-03-02T00:28:54.724Z,9.85
2023-03-02T00:31:22.592Z,8.40
2023-03-02T00:33:51.256Z,9.87
2023-03-02T00:36:20.556Z,7.90
2023-03-02T00:38:48.928Z,9.80
2023-03-02T00:41:16.886Z,9.27
2023-03-02T00:43:44.543Z,10.40
2023-03-02T00:46:14.514Z,7.17
2023-03-02T00:48:42.416Z,8.80
2023-03-02T00:51:11.032Z,8.30
2023-03-02T00:53:39.745Z,9.38
2023-03-02T00:56:08.600Z,7.85
2023-03-02T00:58:37.142Z,10.10
2023-03-02T01:01:10.976Z,7.20
2023-03-02T01:03:39.635Z,7.72
2023-03-02T01:06:15.405Z,9.48
2023-03-02T01:08:43.042Z,10.43
2023-03-02T01:11:19.267Z,11.20
2023-03-02T01:13:47.887Z,7.47
2023-03-02T01:16:16.417Z,9.00
2023-03-02T01:18:43.996Z,8.90
2023-03-02T01:21:14.689Z,7.78
2023-03-02T01:23:42.751Z,8.83
2023-03-02T01:26:10.697Z,10.77
2023-03-02T01:28:38.179Z,10.23
2023-03-02T01:31:06.151Z,13.40
2023-03-02T01:33:33.741Z,9.57
2023-03-02T01:36:01.234Z,10.53
2023-03-02T01:38:29.109Z,9.93
2023-03-02T01:40:56.641Z,10.40
2023-03-02T01:43:24.290Z,10.15
2023-03-02T01:45:57.371Z,9.93
2023-03-02T01:48:58.295Z,8.63
2023-03-02T01:51:28.728Z,9.40
2023-03-02T01:54:07.401Z,8.25
2023-03-02T01:56:39.925Z,14.40
2023-03-02T01:59:12.093Z,10.73
2023-03-02T02:01:43.097Z,11.67
2023-03-02T02:04:11.870Z,10.15
2023-03-02T02:06:46.811Z,10.13
2023-03-02T02:09:18.661Z,9.48
2023-03-02T02:11:46.620Z,10.63
2023-03-02T02:14:14.873Z,8.53
2023-03-02T02:16:42.595Z,8.65
2023-03-02T02:19:36.166Z,8.10
2023-03-02T02:22:04.024Z,8.93
2023-03-02T02:24:44.465Z,12.43
2023-03-02T02:27:13.212Z,8.83
2023-03-02T02:29:48.664Z,9.13
2023-03-02T02:32:20.450Z,9.02
2023-03-02T02:34:58.876Z,10.75
2023-03-02T02:37:32.912Z,10.68
2023-03-02T02:40:07.286Z,10.13
2023-03-02T02:42:40.049Z,11.88
2023-03-02T02:45:17.722Z,10.45
2023-03-02T02:47:45.788Z,11.98
2023-03-02T02:50:26.931Z,13.23
2023-03-02T02:53:05.756Z,9.67
2023-03-02T02:55:35.545Z,9.93
2023-03-02T02:58:15.870Z,11.18
2023-03-02T03:00:44.464Z,10.98
2023-03-02T03:03:29.315Z,11.52
2023-03-02T03:05:59.929Z,11.20
2023-03-02T03:08:45.956Z,10.98
2023-03-02T03:11:19.554Z,11.07
2023-03-02T03:13:47.912Z,10.88
2023-03-02T03:16:17.899Z,10.90
2023-03-02T03:18:48.323Z,11.90
2023-03-02T03:21:18.419Z,10.85
2023-03-02T03:23:46.274Z,15.48
2023-03-02T03:26:13.856Z,12.68
2023-03-02T03:28:41.669Z,12.02
2023-03-02T03:31:09.395Z,12.17
2023-03-02T03:33:36.934Z,10.85
2023-03-02T03:36:05.200Z,11.10
2023-03-02T03:38:32.888Z,10.18
2023-03-02T03:41:00.676Z,10.23
2023-03-02T03:43:28.653Z,9.93
2023-03-02T03:45:57.129Z,10.45
2023-03-02T03:48:24.739Z,11.27
2023-03-02T03:50:53.237Z,10.90
2023-03-02T03:53:20.932Z,11.27
2023-03-02T03:55:48.491Z,13.60
2023-03-02T03:58:16.538Z,11.00
2023-03-02T04:00:45.550Z,12.45
2023-03-02T04:03:15.478Z,11.70
2023-03-02T04:05:43.266Z,9.90
2023-03-02T04:08:11.257Z,11.70
2023-03-02T04:10:39.547Z,12.32
2023-03-02T04:13:07.424Z,12.45
2023-03-02T04:15:35.657Z,11.02
2023-03-02T04:18:04.297Z,12.15
2023-03-02T04:20:32.602Z,10.77
2023-03-02T04:23:00.172Z,13.02
2023-03-02T04:25:29.757Z,13.40
2023-03-02T04:27:58.317Z,10.60
2023-03-02T04:30:27.050Z,11.77
2023-03-02T04:32:57.477Z,11.10
2023-03-02T04:35:25.597Z,13.45
2023-03-02T04:37:54.207Z,12.43
2023-03-02T04:40:22.065Z,16.12
2023-03-02T04:42:49.530Z,16.45
2023-03-02T04:45:17.292Z,12.93
2023-03-02T04:47:45.248Z,12.02
2023-03-02T04:50:14.537Z,12.37
2023-03-02T04:52:42.336Z,14.95
2023-03-02T04:55:18.304Z,11.73
2023-03-02T04:57:45.768Z,10.53
2023-03-02T05:00:15.058Z,10.60
2023-03-02T05:02:42.780Z,11.70
2023-03-02T05:05:19.700Z,11.95
2023-03-02T05:07:47.712Z,11.80
2023-03-02T05:10:16.854Z,12.07
2023-03-02T05:13:02.630Z,13.27
2023-03-02T05:15:39.891Z,13.32
2023-03-02T05:18:09.795Z,11.05
2023-03-02T05:20:38.162Z,12.30
2023-03-02T05:23:08.027Z,11.23
2023-03-02T05:25:36.722Z,12.85
2023-03-02T05:28:05.611Z,14.13
2023-03-02T05:30:37.477Z,14.70
2023-03-02T05:33:05.472Z,12.13
2023-03-02T05:35:33.184Z,13.07
2023-03-02T05:38:00.742Z,13.43
2023-03-02T05:40:28.583Z,14.73
2023-03-02T05:42:56.049Z,14.07
2023-03-02T05:45:30.007Z,16.42
2023-03-02T05:47:57.998Z,12.20
2023-03-02T05:50:25.596Z,14.05
2023-03-02T05:52:53.206Z,13.73
2023-03-02T05:55:21.348Z,16.65
2023-03-02T05:57:49.451Z,12.98
2023-03-02T06:00:18.646Z,14.10
2023-03-02T06:02:46.572Z,14.35
2023-03-02T06:05:17.322Z,13.40
2023-03-02T06:07:45.783Z,16.15
2023-03-02T06:10:16.652Z,13.52
2023-03-02T06:12:44.159Z,12.07
2023-03-02T06:15:11.677Z,14.23
2023-03-02T06:17:39.470Z,13.02
2023-03-02T06:20:11.266Z,15.75
2023-03-02T06:22:41.391Z,13.55
2023-03-02T06:25:11.205Z,14.20
2023-03-02T06:27:40.407Z,13.38
2023-03-02T06:30:10.820Z,13.23
2023-03-02T06:32:38.435Z,13.43
2023-03-02T06:35:08.416Z,14.93
2023-03-02T06:37:36.313Z,17.03
2023-03-02T06:40:11.590Z,13.07
2023-03-02T06:42:41.479Z,15.52
2023-03-02T06:45:10.612Z,17.95
2023-03-02T06:47:38.734Z,15.07
2023-03-02T06:50:09.880Z,14.23
2023-03-02T06:52:37.491Z,14.85
2023-03-02T06:55:05.703Z,13.00
2023-03-02T06:57:36.693Z,17.65
2023-03-02T07:00:18.333Z,15.02
2023-03-02T07:02:46.779Z,15.17
2023-03-02T07:05:14.357Z,13.95
2023-03-02T07:07:42.049Z,16.15
2023-03-02T07:10:12.215Z,16.25
2023-03-02T07:12:41.314Z,14.07
2023-03-02T07:15:12.255Z,16.57
2023-03-02T07:17:42.050Z,14.35
2023-03-02T07:20:11.868Z,15.68
2023-03-02T07:22:40.665Z,15.27
2023-03-02T07:25:09.569Z,14.25
2023-03-02T07:27:38.043Z,15.33
2023-03-02T07:30:07.216Z,16.40
2023-03-02T07:32:34.838Z,16.65
2023-03-02T07:35:02.344Z,15.43
2023-03-02T07:37:30.166Z,14.43
2023-03-02T07:40:00.282Z,15.50
2023-03-02T07:42:28.239Z,16.33
2023-03-02T07:44:56.511Z,18.87
2023-03-02T07:47:24.210Z,13.93
2023-03-02T07:49:51.700Z,13.20
2023-03-02T07:52:19.507Z,17.13
2023-03-02T07:54:46.985Z,16.52
2023-03-02T07:57:16.404Z,16.45
2023-03-02T07:59:44.430Z,15.85
2023-03-02T08:02:14.809Z,19.73
2023-03-02T08:04:43.283Z,17.27
2023-03-02T08:07:10.811Z,20.52
2023-03-02T08:09:39.917Z,16.70
2023-03-02T08:12:07.790Z,19.35
2023-03-02T08:14:35.381Z,19.10
2023-03-02T08:17:04.911Z,15.80
2023-03-02T08:19:33.498Z,16.42
2023-03-02T08:22:02.242Z,16.98
2023-03-02T08:24:30.369Z,15.65
2023-03-02T08:27:04.765Z,19.33
2023-03-02T08:29:32.956Z,15.40
2023-03-02T08:32:00.926Z,12.60
2023-03-02T08:34:28.586Z,16.02
2023-03-02T08:36:56.098Z,13.48
2023-03-02T08:39:23.979Z,16.25
2023-03-02T08:41:54.622Z,15.97
2023-03-02T08:44:22.505Z,16.15
2023-03-02T08:46:51.067Z,17.60
2023-03-02T08:49:19.538Z,15.98
2023-03-02T08:51:49.112Z,19.62
2023-03-02T08:54:16.907Z,11.70
2023-03-02T08:56:44.587Z,17.33
2023-03-02T08:59:13.835Z,14.93
2023-03-02T09:01:42.096Z,15.18
2023-03-02T09:04:11.006Z,16.00
2023-03-02T09:06:41.911Z,16.27
2023-03-02T09:09:11.500Z,16.62
2023-03-02T09:11:39.753Z,15.27
2023-03-02T09:14:07.249Z,15.15
2023-03-02T09:16:35.141Z,17.15
2023-03-02T09:19:02.830Z,16.37
2023-03-02T09:21:30.393Z,14.57
2023-03-02T09:23:58.690Z,17.67
2023-03-02T09:26:27.357Z,14.98
2023-03-02T09:28:55.796Z,14.35
2023-03-02T09:31:23.889Z,15.63
2023-03-02T09:33:51.432Z,17.10
2023-03-02T09:36:24.340Z,15.27
2023-03-02T09:38:52.887Z,15.80
2023-03-02T09:41:20.304Z,14.70
2023-03-02T09:44:00.214Z,18.37
2023-03-02T09:46:37.738Z,19.02
2023-03-02T09:49:42.332Z,16.70
2023-03-02T09:52:30.103Z,16.15
2023-03-02T09:55:12.690Z,17.65
2023-03-02T09:57:41.463Z,16.90
2023-03-02T10:00:19.903Z,18.85
2023-03-02T10:03:11.388Z,18.23
2023-03-02T10:05:46.034Z,15.82
2023-03-02T10:08:26.066Z,16.52
2023-03-02T10:11:05.423Z,18.87
2023-03-02T10:13:44.975Z,14.55
2023-03-02T10:16:21.806Z,17.40
2023-03-02T10:18:52.723Z,19.77
2023-03-02T10:21:25.041Z,19.20
2023-03-02T10:24:08.011Z,18.50
2023-03-02T10:26:53.380Z,16.65
2023-03-02T10:29:36.317Z,14.50
2023-03-02T10:32:09.968Z,14.35
2023-03-02T10:34:38.697Z,16.35
2023-03-02T10:37:13.891Z,15.73
2023-03-02T10:39:41.852Z,17.42
2023-03-02T10:42:37.203Z,15.75
2023-03-02T10:45:17.240Z,17.87
2023-03-02T10:47:44.778Z,17.58
2023-03-02T10:50:22.756Z,21.27
2023-03-02T10:52:59.516Z,17.42
2023-03-02T10:55:29.029Z,17.95
2023-03-02T10:58:06.159Z,16.55
2023-03-02T11:00:35.067Z,19.70
2023-03-02T11:03:06.590Z,17.17
2023-03-02T11:05:39.668Z,15.32
2023-03-02T11:08:16.842Z,16.40
2023-03-02T11:10:59.909Z,16.67
2023-03-02T11:13:39.151Z,17.58
2023-03-02T11:16:18.983Z,19.00
2023-03-02T11:19:12.195Z,15.75
2023-03-02T11:22:04.425Z,17.25
2023-03-02T11:24:48.550Z,16.42
2023-03-02T11:27:25.466Z,16.62
2023-03-02T11:30:27.112Z,17.37
2023-03-02T11:33:00.339Z,15.90
2023-03-02T11:35:37.184Z,18.02
2023-03-02T11:38:23.493Z,16.05
2023-03-02T11:41:12.568Z,18.12
2023-03-02T11:43:40.410Z,18.63
2023-03-02T11:46:22.324Z,17.25
2023-03-02T11:48:57.276Z,18.25
2023-03-02T11:51:29.408Z,19.60
2023-03-02T11:54:13.945Z,16.92
2023-03-02T11:56:42.419Z,20.00
2023-03-02T11:59:23.023Z,17.15
2023-03-02T12:01:53.615Z,17.02
2023-03-02T12:04:39.740Z,18.62
2023-03-02T12:07:18.248Z,16.27
2023-03-02T12:10:06.064Z,19.83
2023-03-02T12:12:48.143Z,19.20
2023-03-02T12:15:51.762Z,18.27
2023-03-02T12:18:22.233Z,17.48
2023-03-02T12:21:10.079Z,17.52
2023-03-02T12:23:58.986Z,19.70
2023-03-02T12:26:36.943Z,18.90
2023-03-02T12:29:23.936Z,15.65
2023-03-02T12:31:54.947Z,15.80
2023-03-02T12:34:42.815Z,16.60
2023-03-02T12:37:24.909Z,19.40
2023-03-02T12:40:43.640Z,17.35
2023-03-02T12:43:25.681Z,17.70
2023-03-02T12:46:21.080Z,15.60
2023-03-02T12:49:00.981Z,18.00
2023-03-02T12:51:51.764Z,16.70
2023-03-02T12:54:22.877Z,14.20
2023-03-02T12:57:01.381Z,17.17
2023-03-02T12:59:29.634Z,17.70
2023-03-02T13:02:13.179Z,17.45
2023-03-02T13:04:41.081Z,17.50
2023-03-02T13:07:22.413Z,16.62
2023-03-02T13:09:56.768Z,15.45
2023-03-02T13:12:28.120Z,17.77
2023-03-02T13:14:58.860Z,16.75
2023-03-02T13:17:31.752Z,17.70
2023-03-02T13:20:01.669Z,19.45
2023-03-02T13:22:29.717Z,16.15
2023-03-02T13:25:08.191Z,16.20
2023-03-02T13:27:36.068Z,15.43
2023-03-02T13:30:30.222Z,17.50
2023-03-02T13:33:03.903Z,15.85
2023-03-02T13:35:33.825Z,19.37
2023-03-02T13:38:18.107Z,15.93
2023-03-02T13:40:48.574Z,18.20
2023-03-02T13:43:22.971Z,18.50
2023-03-02T13:45:56.364Z,19.12
2023-03-02T13:48:24.623Z,19.05
2023-03-02T13:50:58.507Z,17.58
2023-03-02T13:53:30.138Z,19.77
2023-03-02T13:56:00.343Z,20.47
2023-03-02T13:58:29.827Z,18.62
2023-03-02T14:00:57.604Z,20.08
2023-03-02T14:03:28.688Z,17.62
2023-03-02T14:05:57.974Z,18.12
2023-03-02T14:08:25.999Z,17.43
2023-03-02T14:10:57.403Z,19.83
2023-03-02T14:13:28.574Z,19.87
2023-03-02T14:15:56.439Z,17.80
2023-03-02T14:18:39.862Z,18.35
2023-03-02T14:21:19.261Z,16.20
2023-03-02T14:23:47.451Z,19.77
2023-03-02T14:26:43.588Z,19.48
2023-03-02T14:29:25.307Z,16.55
2023-03-02T14:31:55.583Z,17.50
2023-03-02T14:34:23.420Z,18.17
2023-03-02T14:36:54.427Z,15.15
2023-03-02T14:39:47.352Z,15.38
2023-03-02T14:42:17.150Z,17.48
2023-03-02T14:44:46.983Z,16.73
2023-03-02T14:47:16.683Z,19.90
2023-03-02T14:49:44.452Z,19.67
2023-03-02T14:52:23.557Z,15.63
2023-03-02T14:54:54.592Z,20.00
2023-03-02T14:57:25.430Z,20.10
2023-03-02T14:59:53.905Z,20.17
2023-03-02T15:02:26.135Z,21.65
2023-03-02T15:04:57.792Z,17.35
2023-03-02T15:07:27.782Z,22.52
2023-03-02T15:09:56.869Z,20.48
2023-03-02T15:12:24.897Z,18.10
2023-03-02T15:14:52.677Z,24.85
2023-03-02T15:17:20.216Z,25.65
2023-03-02T15:19:48.175Z,22.65
2023-03-02T15:22:16.102Z,18.58
2023-03-02T15:24:43.598Z,20.93
2023-03-02T15:27:11.101Z,19.45
2023-03-02T15:29:38.937Z,20.52
2023-03-02T15:32:07.579Z,19.45
2023-03-02T15:34:35.735Z,24.48
2023-03-02T15:37:03.584Z,23.13
2023-03-02T15:39:31.388Z,22.48
2023-03-02T15:41:58.926Z,23.05
2023-03-02T15:44:26.817Z,22.08
2023-03-02T15:46:55.597Z,26.37
2023-03-02T15:49:27.224Z,23.07
2023-03-02T15:51:57.639Z,21.15
2023-03-02T15:54:26.699Z,23.02
2023-03-02T15:56:54.744Z,22.50
2023-03-02T15:59:25.036Z,20.23
2023-03-02T16:01:53.565Z,24.10
2023-03-02T16:04:21.394Z,22.27
2023-03-02T16:06:48.992Z,22.95
2023-03-02T16:09:16.557Z,22.80
2023-03-02T16:11:44.339Z,23.15
2023-03-02T16:14:15.568Z,21.93
2023-03-02T16:16:46.532Z,23.35
2023-03-02T16:19:18.967Z,23.62
2023-03-02T16:21:48.163Z,24.48
2023-03-02T16:24:17.184Z,26.15
2023-03-02T16:26:45.533Z,27.27
2023-03-02T16:29:13.843Z,23.65
2023-03-02T16:31:42.025Z,26.62
2023-03-02T16:34:11.320Z,23.85
2023-03-02T16:36:40.579Z,25.33
2023-03-02T16:39:09.359Z,24.83
2023-03-02T16:41:38.311Z,24.33
2023-03-02T16:44:06.899Z,22.65
2023-03-02T16:46:37.588Z,24.20
2023-03-02T16:49:06.065Z,25.17
2023-03-02T16:51:33.697Z,25.63
2023-03-02T16:54:02.310Z,23.62
2023-03-02T16:56:30.248Z,23.62
2023-03-02T16:58:59.976Z,23.45
2023-03-02T17:01:29.308Z,25.52
2023-03-02T17:03:57.436Z,27.37
2023-03-02T17:06:25.081Z,25.27
2023-03-02T17:08:52.946Z,27.92
2023-03-02T17:11:21.197Z,26.77
2023-03-02T17:13:48.714Z,27.48
2023-03-02T17:16:16.883Z,23.57
2023-03-02T17:18:47.117Z,25.08
2023-03-02T17:21:16.665Z,24.40
2023-03-02T17:23:48.126Z,25.12
2023-03-02T17:26:17.333Z,26.10
2023-03-02T17:28:45.217Z,25.80
2023-03-02T17:31:12.977Z,26.62
2023-03-02T17:33:40.601Z,25.00
2023-03-02T17:36:12.200Z,26.45
2023-03-02T17:38:41.103Z,27.67
2023-03-02T17:41:11.172Z,25.57
2023-03-02T17:43:42.771Z,25.80
2023-03-02T17:46:17.000Z,27.62
2023-03-02T17:48:44.625Z,26.12
2023-03-02T17:51:14.941Z,26.12
2023-03-02T17:53:48.233Z,26.27
2023-03-02T17:56:18.987Z,29.55
2023-03-02T17:58:46.818Z,28.92
2023-03-02T18:01:15.928Z,29.23
2023-03-02T18:03:45.292Z,29.70
2023-03-02T18:06:14.030Z,28.20
2023-03-02T18:08:41.853Z,26.27
2023-03-02T18:11:10.616Z,24.73
2023-03-02T18:13:38.636Z,28.42
2023-03-02T18:16:06.620Z,23.85
2023-03-02T18:18:34.541Z,26.07
2023-03-02T18:21:02.486Z,26.37
2023-03-02T18:23:30.525Z,28.23
2023-03-02T18:25:58.681Z,23.15
2023-03-02T18:28:26.265Z,27.02
2023-03-02T18:30:53.843Z,22.73
2023-03-02T18:33:21.711Z,27.90
2023-03-02T18:35:49.339Z,27.15
2023-03-02T18:38:16.899Z,27.40
2023-03-02T18:40:44.861Z,27.98
2023-03-02T18:43:12.579Z,27.70
2023-03-02T18:45:40.284Z,30.20
2023-03-02T18:48:08.134Z,30.27
2023-03-02T18:50:35.677Z,27.27
2023-03-02T18:53:03.160Z,28.73
2023-03-02T18:55:31.078Z,29.10
2023-03-02T18:57:59.536Z,30.90
2023-03-02T19:00:28.260Z,26.73
2023-03-02T19:02:57.471Z,31.12
2023-03-02T19:05:27.099Z,30.25
2023-03-02T19:07:54.931Z,29.83
2023-03-02T19:10:22.712Z,29.08
2023-03-02T19:12:50.412Z,30.55
2023-03-02T19:15:18.061Z,30.98
2023-03-02T19:17:46.114Z,30.65
2023-03-02T19:20:15.883Z,29.40
2023-03-02T19:22:43.452Z,31.65
2023-03-02T19:25:11.686Z,32.80
2023-03-02T19:27:40.450Z,29.60
2023-03-02T19:30:18.886Z,28.17
2023-03-02T19:32:56.795Z,32.63
2023-03-02T19:35:27.170Z,29.85
2023-03-02T19:37:55.907Z,30.70
2023-03-02T19:40:25.188Z,32.53
2023-03-02T19:42:53.834Z,36.25
2023-03-02T19:45:29.460Z,35.73
2023-03-02T19:47:58.783Z,32.60
2023-03-02T19:50:28.512Z,36.65
2023-03-02T19:52:56.670Z,33.90
2023-03-02T19:55:25.475Z,35.40
2023-03-02T19:57:59.931Z,38.93
2023-03-02T20:00:30.832Z,30.67
2023-03-02T20:02:59.528Z,34.42
2023-03-02T20:05:27.813Z,33.85
2023-03-02T20:07:55.742Z,33.20
2023-03-02T20:10:35.195Z,33.33
2023-03-02T20:13:03.565Z,34.45
2023-03-02T20:15:33.630Z,36.90
2023-03-02T20:18:02.661Z,33.13
2023-03-02T20:20:31.118Z,32.97
2023-03-02T20:23:00.315Z,32.27
2023-03-02T20:25:28.500Z,35.45
2023-03-02T20:27:57.215Z,30.25
2023-03-02T20:30:30.305Z,33.22
2023-03-02T20:32:59.932Z,32.75
2023-03-02T20:35:29.979Z,35.17
2023-03-02T20:37:59.938Z,35.03
2023-03-02T20:40:29.326Z,33.15
2023-03-02T20:42:57.059Z,33.40
2023-03-02T20:45:24.772Z,30.85
2023-03-02T20:47:52.610Z,31.97
2023-03-02T20:50:23.818Z,31.33
2023-03-02T20:52:51.466Z,31.77
2023-03-02T20:55:19.463Z,30.23
2023-03-02T20:57:48.668Z,32.15
2023-03-02T21:00:23.422Z,30.73
2023-03-02T21:02:51.794Z,30.05
2023-03-02T21:05:21.615Z,32.78
2023-03-02T21:07:49.529Z,46.97
2023-03-02T21:10:21.838Z,44.20
2023-03-02T21:12:49.461Z,46.77
2023-03-02T21:15:20.127Z,42.15
2023-03-02T21:17:47.645Z,41.58
2023-03-02T21:20:18.428Z,46.10
2023-03-02T21:22:46.573Z,43.42
2023-03-02T21:25:14.208Z,43.10
2023-03-02T21:27:43.922Z,37.45
2023-03-02T21:30:18.078Z,38.40
2023-03-02T21:32:46.537Z,31.65
2023-03-02T21:35:17.078Z,32.17
2023-03-02T21:37:44.893Z,33.63
2023-03-02T21:40:16.786Z,32.95
2023-03-02T21:42:44.997Z,31.58
2023-03-02T21:45:12.923Z,32.72
2023-03-02T21:47:42.361Z,38.00
2023-03-02T21:50:24.814Z,32.07
2023-03-02T21:52:52.288Z,33.55
2023-03-02T21:55:20.274Z,36.85
2023-03-02T21:57:48.485Z,34.30
2023-03-02T22:00:26.042Z,36.05
2023-03-02T22:02:54.478Z,33.03
2023-03-02T22:05:22.206Z,35.13
2023-03-02T22:07:49.835Z,38.78
2023-03-02T22:10:34.820Z,40.40
2023-03-02T22:13:24.789Z,33.75
2023-03-02T22:16:16.018Z,33.90
2023-03-02T22:18:45.417Z,46.13
2023-03-02T22:21:34.626Z,54.30
2023-03-02T22:24:08.298Z,40.53
2023-03-02T22:26:45.405Z,36.88
2023-03-02T22:29:41.256Z,45.03
2023-03-02T22:32:18.079Z,46.65
2023-03-02T22:34:47.880Z,39.72
2023-03-02T22:37:19.654Z,45.28
2023-03-02T22:39:48.483Z,37.00
2023-03-02T22:42:25.255Z,41.27
2023-03-02T22:45:06.441Z,40.10
2023-03-02T22:47:34.246Z,42.25
2023-03-02T22:50:20.673Z,36.05
2023-03-02T22:52:49.082Z,44.00
2023-03-02T22:55:40.707Z,36.87
2023-03-02T22:58:36.179Z,35.90
2023-03-02T23:01:21.630Z,36.65
2023-03-02T23:03:53.102Z,32.67
2023-03-02T23:06:25.768Z,38.33
2023-03-02T23:08:55.831Z,44.17
2023-03-02T23:11:24.471Z,39.38
2023-03-02T23:13:53.401Z,42.75
2023-03-02T23:16:27.301Z,40.88
2023-03-02T23:19:01.498Z,41.17
2023-03-02T23:21:46.450Z,47.03
2023-03-02T23:24:14.021Z,36.33
2023-03-02T23:26:41.838Z,38.30
2023-03-02T23:29:09.308Z,37.42
2023-03-02T23:31:36.861Z,42.75
2023-03-02T23:34:05.448Z,55.27
2023-03-02T23:36:33.054Z,45.55
2023-03-02T23:39:00.776Z,38.13
2023-03-02T23:41:28.589Z,44.85
2023-03-02T23:43:56.185Z,52.38
2023-03-02T23:46:24.307Z,61.27
2023-03-02T23:48:53.058Z,57.65
2023-03-02T23:51:20.655Z,68.07
2023-03-02T23:53:48.185Z,74.95
2023-03-02T23:56:15.989Z,59.90
2023-03-02T23:58:43.505Z,52.37
